createdAt,value
2017-12-01T00:00:29.728Z,20.33
2017-12-01T00:01:30.253Z,20.40
2017-12-01T00:02:30.677Z,20.47
2017-12-01T00:03:31.152Z,20.51
2017-12-01T00:04:31.627Z,20.53
2017-12-01T00:05:32.106Z,20.55
2017-12-01T00:06:32.629Z,20.55
2017-12-01T00:07:33.055Z,20.54
2017-12-01T00:08:33.530Z,20.52
2017-12-01T00:09:34.005Z,20.49
2017-12-01T00:10:34.480Z,20.45
2017-12-01T00:11:35.008Z,20.40
2017-12-01T00:12:35.433Z,20.36
2017-12-01T00:13:35.908Z,20.32
2017-12-01T00:14:36.385Z,20.26
2017-12-01T00:15:36.860Z,20.21
2017-12-01T00:16:37.387Z,20.15
2017-12-01T00:17:37.811Z,20.08
2017-12-01T00:18:38.287Z,20.02
2017-12-01T00:19:38.770Z,19.96
2017-12-01T00:20:39.239Z,19.90
2017-12-01T00:21:39.764Z,19.83
2017-12-01T00:22:40.189Z,19.75
2017-12-01T00:23:40.665Z,19.69
2017-12-01T00:24:41.140Z,19.63
2017-12-01T00:25:41.615Z,19.58
2017-12-01T00:26:42.141Z,19.52
2017-12-01T00:27:42.565Z,19.47
2017-12-01T00:28:43.043Z,19.42
2017-12-01T00:29:43.513Z,19.38
2017-12-01T00:30:43.989Z,19.33
2017-12-01T00:31:44.514Z,19.29
2017-12-01T00:32:44.938Z,19.25
2017-12-01T00:33:45.412Z,19.21
2017-12-01T00:34:45.886Z,19.18
2017-12-01T00:35:46.361Z,19.14
2017-12-01T00:36:46.886Z,19.11
2017-12-01T00:37:47.309Z,19.08
2017-12-01T00:38:47.783Z,19.05
2017-12-01T00:39:48.258Z,19.02
2017-12-01T00:40:48.734Z,18.99
2017-12-01T00:41:49.255Z,18.96
2017-12-01T00:42:49.678Z,18.94
2017-12-01T00:43:50.152Z,18.92
2017-12-01T00:44:50.626Z,18.89
2017-12-01T00:45:51.098Z,18.86
2017-12-01T00:46:51.623Z,18.84
2017-12-01T00:47:52.046Z,18.82
2017-12-01T00:48:52.519Z,18.80
2017-12-01T00:49:52.994Z,18.78
2017-12-01T00:50:53.465Z,18.77
2017-12-01T00:51:53.989Z,18.75
2017-12-01T00:52:54.418Z,18.75
2017-12-01T00:53:54.884Z,18.74
2017-12-01T00:54:55.358Z,18.73
2017-12-01T00:55:55.831Z,18.72
2017-12-01T00:56:56.355Z,18.70
2017-12-01T00:57:56.786Z,18.68
2017-12-01T00:58:57.249Z,18.67
2017-12-01T00:59:57.723Z,18.65
2017-12-01T01:00:58.196Z,18.65
2017-12-01T01:01:58.719Z,18.63
2017-12-01T01:02:59.142Z,18.62
2017-12-01T01:03:59.614Z,18.61
2017-12-01T01:05:00.088Z,18.60
2017-12-01T01:06:00.560Z,18.58
2017-12-01T01:07:01.093Z,18.57
2017-12-01T01:08:01.513Z,18.56
2017-12-01T01:09:01.979Z,18.54
2017-12-01T01:10:02.451Z,18.53
2017-12-01T01:11:02.924Z,18.52
2017-12-01T01:12:03.448Z,18.50
2017-12-01T01:13:03.869Z,18.49
2017-12-01T01:14:04.341Z,18.48
2017-12-01T01:15:04.814Z,18.47
2017-12-01T01:16:05.287Z,18.46
2017-12-01T01:17:05.810Z,18.45
2017-12-01T01:18:06.232Z,18.44
2017-12-01T01:19:06.705Z,18.44
2017-12-01T01:20:07.177Z,18.43
2017-12-01T01:21:07.655Z,18.42
2017-12-01T01:22:08.180Z,18.42
2017-12-01T01:23:08.594Z,18.41
2017-12-01T01:24:09.067Z,18.41
2017-12-01T01:25:09.539Z,18.41
2017-12-01T01:26:10.012Z,18.40
2017-12-01T01:27:10.535Z,18.40
2017-12-01T01:28:10.957Z,18.39
2017-12-01T01:29:11.429Z,18.39
2017-12-01T01:30:11.901Z,18.38
2017-12-01T01:31:12.374Z,18.37
2017-12-01T01:32:12.897Z,18.37
2017-12-01T01:33:13.319Z,18.36
2017-12-01T01:34:13.791Z,18.35
2017-12-01T01:35:14.264Z,18.35
2017-12-01T01:36:14.735Z,18.33
2017-12-01T01:37:15.259Z,18.32
2017-12-01T01:38:15.680Z,18.31
2017-12-01T01:39:16.153Z,18.30
2017-12-01T01:40:16.632Z,18.29
2017-12-01T01:41:17.148Z,18.28
2017-12-01T01:42:17.620Z,18.27
2017-12-01T01:43:18.041Z,18.25
2017-12-01T01:44:18.514Z,18.25
2017-12-01T01:45:18.986Z,18.24
2017-12-01T01:46:19.457Z,18.22
2017-12-01T01:47:19.980Z,18.21
2017-12-01T01:48:20.403Z,18.21
2017-12-01T01:49:20.875Z,18.19
2017-12-01T01:50:21.345Z,18.19
2017-12-01T01:51:21.818Z,18.18
2017-12-01T01:52:22.341Z,18.18
2017-12-01T01:53:22.762Z,18.19
2017-12-01T01:54:23.234Z,18.22
2017-12-01T01:55:23.708Z,18.26
2017-12-01T01:56:24.177Z,18.32
2017-12-01T01:57:24.741Z,18.39
2017-12-01T01:58:25.121Z,18.46
2017-12-01T01:59:25.597Z,18.56
2017-12-01T02:00:26.066Z,18.65
2017-12-01T02:01:26.539Z,18.77
2017-12-01T02:02:27.061Z,18.89
2017-12-01T02:03:27.482Z,19.01
2017-12-01T02:04:27.956Z,19.15
2017-12-01T02:05:28.429Z,19.31
2017-12-01T02:06:28.901Z,19.46
2017-12-01T02:07:29.426Z,19.63
2017-12-01T02:08:29.849Z,19.79
2017-12-01T02:09:30.325Z,19.95
2017-12-01T02:10:30.796Z,20.12
2017-12-01T02:11:31.270Z,20.26
2017-12-01T02:12:31.795Z,20.41
2017-12-01T02:13:32.223Z,20.53
2017-12-01T02:14:32.694Z,20.64
2017-12-01T02:15:33.169Z,20.71
2017-12-01T02:16:33.649Z,20.78
2017-12-01T02:17:34.172Z,20.83
2017-12-01T02:18:34.596Z,20.85
2017-12-01T02:19:35.072Z,20.86
2017-12-01T02:20:35.548Z,20.87
2017-12-01T02:21:36.024Z,20.85
2017-12-01T02:22:36.550Z,20.84
2017-12-01T02:23:36.976Z,20.81
2017-12-01T02:24:37.453Z,20.76
2017-12-01T02:25:37.929Z,20.71
2017-12-01T02:26:38.405Z,20.66
2017-12-01T02:27:38.932Z,20.61
2017-12-01T02:28:39.358Z,20.55
2017-12-01T02:29:39.835Z,20.49
2017-12-01T02:30:40.310Z,20.43
2017-12-01T02:31:40.786Z,20.37
2017-12-01T02:32:41.314Z,20.30
2017-12-01T02:33:41.739Z,20.24
2017-12-01T02:34:42.214Z,20.17
2017-12-01T02:35:42.691Z,20.10
2017-12-01T02:36:43.168Z,20.02
2017-12-01T02:37:43.696Z,19.96
2017-12-01T02:38:44.117Z,19.90
2017-12-01T02:39:44.594Z,19.84
2017-12-01T02:40:45.069Z,19.78
2017-12-01T02:41:45.544Z,19.72
2017-12-01T02:42:46.070Z,19.67
2017-12-01T02:43:46.495Z,19.61
2017-12-01T02:44:46.970Z,19.56
2017-12-01T02:45:47.446Z,19.51
2017-12-01T02:46:47.920Z,19.45
2017-12-01T02:47:48.447Z,19.41
2017-12-01T02:48:48.869Z,19.36
2017-12-01T02:49:49.345Z,19.32
2017-12-01T02:50:49.819Z,19.26
2017-12-01T02:51:50.294Z,19.22
2017-12-01T02:52:50.819Z,19.19
2017-12-01T02:53:51.243Z,19.15
2017-12-01T02:54:51.717Z,19.11
2017-12-01T02:55:52.193Z,19.08
2017-12-01T02:56:52.665Z,19.04
2017-12-01T02:57:53.190Z,19.01
2017-12-01T02:58:53.612Z,18.97
2017-12-01T02:59:54.086Z,18.95
2017-12-01T03:00:54.563Z,18.92
2017-12-01T03:01:55.035Z,18.89
2017-12-01T03:02:55.558Z,18.85
2017-12-01T03:03:55.980Z,18.83
2017-12-01T03:04:56.456Z,18.80
2017-12-01T03:05:56.929Z,18.77
2017-12-01T03:06:57.404Z,18.75
2017-12-01T03:07:57.926Z,18.72
2017-12-01T03:08:58.348Z,18.70
2017-12-01T03:09:58.821Z,18.68
2017-12-01T03:10:59.294Z,18.65
2017-12-01T03:11:59.767Z,18.63
2017-12-01T03:13:00.291Z,18.61
2017-12-01T03:14:00.714Z,18.59
2017-12-01T03:15:01.186Z,18.57
2017-12-01T03:16:01.662Z,18.55
2017-12-01T03:17:02.133Z,18.53
2017-12-01T03:18:02.656Z,18.51
2017-12-01T03:19:03.077Z,18.48
2017-12-01T03:20:03.553Z,18.47
2017-12-01T03:21:04.023Z,18.45
2017-12-01T03:22:04.497Z,18.44
2017-12-01T03:23:05.019Z,18.42
2017-12-01T03:24:05.441Z,18.40
2017-12-01T03:25:05.925Z,18.38
2017-12-01T03:26:06.387Z,18.37
2017-12-01T03:27:06.865Z,18.35
2017-12-01T03:28:07.382Z,18.34
2017-12-01T03:29:07.804Z,18.33
2017-12-01T03:30:08.280Z,18.31
2017-12-01T03:31:08.749Z,18.30
2017-12-01T03:32:09.221Z,18.28
2017-12-01T03:33:09.745Z,18.27
2017-12-01T03:34:10.166Z,18.25
2017-12-01T03:35:10.638Z,18.24
2017-12-01T03:36:11.112Z,18.23
2017-12-01T03:37:11.584Z,18.22
2017-12-01T03:38:12.105Z,18.20
2017-12-01T03:39:12.526Z,18.20
2017-12-01T03:40:12.999Z,18.18
2017-12-01T03:41:13.470Z,18.17
2017-12-01T03:42:13.943Z,18.15
2017-12-01T03:43:14.467Z,18.14
2017-12-01T03:44:14.886Z,18.12
2017-12-01T03:45:15.359Z,18.12
2017-12-01T03:46:15.830Z,18.10
2017-12-01T03:47:16.302Z,18.09
2017-12-01T03:48:16.825Z,18.08
2017-12-01T03:49:17.250Z,18.07
2017-12-01T03:50:17.719Z,18.06
2017-12-01T03:51:18.190Z,18.05
2017-12-01T03:52:18.662Z,18.04
2017-12-01T03:53:19.184Z,18.03
2017-12-01T03:54:19.606Z,18.02
2017-12-01T03:55:20.076Z,18.01
2017-12-01T03:56:20.549Z,18.00
2017-12-01T03:57:21.020Z,18.00
2017-12-01T03:58:21.545Z,17.99
2017-12-01T03:59:21.963Z,18.01
2017-12-01T04:00:22.436Z,18.03
2017-12-01T04:01:22.907Z,18.07
2017-12-01T04:02:23.379Z,18.12
2017-12-01T04:03:23.901Z,18.19
2017-12-01T04:04:24.322Z,18.28
2017-12-01T04:05:24.795Z,18.36
2017-12-01T04:06:25.267Z,18.45
2017-12-01T04:07:25.739Z,18.56
2017-12-01T04:08:26.261Z,18.66
2017-12-01T04:09:26.683Z,18.76
2017-12-01T04:10:27.156Z,18.89
2017-12-01T04:11:27.628Z,19.02
2017-12-01T04:12:28.101Z,19.16
2017-12-01T04:13:28.624Z,19.31
2017-12-01T04:14:29.048Z,19.47
2017-12-01T04:15:29.520Z,19.63
2017-12-01T04:16:29.994Z,19.79
2017-12-01T04:17:30.468Z,19.95
2017-12-01T04:18:30.992Z,20.10
2017-12-01T04:19:31.416Z,20.25
2017-12-01T04:20:31.902Z,20.38
2017-12-01T04:21:32.366Z,20.48
2017-12-01T04:22:32.841Z,20.55
2017-12-01T04:23:33.366Z,20.61
2017-12-01T04:24:33.794Z,20.66
2017-12-01T04:25:34.268Z,20.69
2017-12-01T04:26:34.743Z,20.70
2017-12-01T04:27:35.219Z,20.71
2017-12-01T04:28:35.746Z,20.71
2017-12-01T04:29:36.171Z,20.69
2017-12-01T04:30:36.647Z,20.66
2017-12-01T04:31:37.123Z,20.61
2017-12-01T04:32:37.599Z,20.56
2017-12-01T04:33:38.126Z,20.51
2017-12-01T04:34:38.552Z,20.47
2017-12-01T04:35:39.028Z,20.41
2017-12-01T04:36:39.504Z,20.36
2017-12-01T04:37:39.981Z,20.31
2017-12-01T04:38:40.507Z,20.24
2017-12-01T04:39:40.932Z,20.17
2017-12-01T04:40:41.409Z,20.11
2017-12-01T04:41:41.885Z,20.05
2017-12-01T04:42:42.361Z,19.98
2017-12-01T04:43:42.887Z,19.92
2017-12-01T04:44:43.313Z,19.86
2017-12-01T04:45:43.788Z,19.79
2017-12-01T04:46:44.264Z,19.73
2017-12-01T04:47:44.742Z,19.66
2017-12-01T04:48:45.265Z,19.61
2017-12-01T04:49:45.691Z,19.56
2017-12-01T04:50:46.166Z,19.50
2017-12-01T04:51:46.640Z,19.43
2017-12-01T04:52:47.116Z,19.39
2017-12-01T04:53:47.641Z,19.34
2017-12-01T04:54:48.065Z,19.28
2017-12-01T04:55:48.540Z,19.23
2017-12-01T04:56:49.015Z,19.18
2017-12-01T04:57:49.490Z,19.14
2017-12-01T04:58:50.015Z,19.10
2017-12-01T04:59:50.438Z,19.06
2017-12-01T05:00:50.916Z,19.02
2017-12-01T05:01:51.387Z,18.99
2017-12-01T05:02:51.861Z,18.94
2017-12-01T05:03:52.385Z,18.91
2017-12-01T05:04:52.809Z,18.87
2017-12-01T05:05:53.283Z,18.84
2017-12-01T05:06:53.757Z,18.80
2017-12-01T05:07:54.230Z,18.76
2017-12-01T05:08:54.757Z,18.74
2017-12-01T05:09:55.178Z,18.71
2017-12-01T05:10:55.685Z,18.68
2017-12-01T05:11:56.125Z,18.66
2017-12-01T05:12:56.598Z,18.63
2017-12-01T05:13:57.122Z,18.61
2017-12-01T05:14:57.545Z,18.58
2017-12-01T05:15:58.018Z,18.56
2017-12-01T05:16:58.491Z,18.54
2017-12-01T05:17:58.965Z,18.51
2017-12-01T05:18:59.489Z,18.48
2017-12-01T05:19:59.910Z,18.46
2017-12-01T05:21:00.385Z,18.44
2017-12-01T05:22:00.857Z,18.42
2017-12-01T05:23:01.330Z,18.40
2017-12-01T05:24:01.853Z,18.38
2017-12-01T05:25:02.275Z,18.36
2017-12-01T05:26:02.748Z,18.34
2017-12-01T05:27:03.221Z,18.32
2017-12-01T05:28:03.693Z,18.30
2017-12-01T05:29:04.217Z,18.28
2017-12-01T05:30:04.639Z,18.27
2017-12-01T05:31:05.112Z,18.25
2017-12-01T05:32:05.584Z,18.23
2017-12-01T05:33:06.057Z,18.21
2017-12-01T05:34:06.580Z,18.19
2017-12-01T05:35:07.002Z,18.17
2017-12-01T05:36:07.474Z,18.16
2017-12-01T05:37:07.947Z,18.14
2017-12-01T05:38:08.419Z,18.13
2017-12-01T05:39:08.942Z,18.12
2017-12-01T05:40:09.363Z,18.10
2017-12-01T05:41:09.836Z,18.09
2017-12-01T05:42:10.308Z,18.08
2017-12-01T05:43:10.781Z,18.07
2017-12-01T05:44:11.303Z,18.06
2017-12-01T05:45:11.725Z,18.04
2017-12-01T05:46:12.196Z,18.02
2017-12-01T05:47:12.669Z,18.01
2017-12-01T05:48:13.140Z,18.00
2017-12-01T05:49:13.668Z,17.99
2017-12-01T05:50:14.085Z,17.97
2017-12-01T05:51:14.557Z,17.96
2017-12-01T05:52:15.029Z,17.96
2017-12-01T05:53:15.500Z,17.95
2017-12-01T05:54:16.024Z,17.94
2017-12-01T05:55:16.453Z,17.93
2017-12-01T05:56:16.917Z,17.91
2017-12-01T05:57:17.388Z,17.91
2017-12-01T05:58:17.861Z,17.91
2017-12-01T05:59:18.383Z,17.92
2017-12-01T06:00:18.803Z,17.96
2017-12-01T06:01:19.276Z,18.00
2017-12-01T06:02:19.749Z,18.05
2017-12-01T06:03:20.220Z,18.12
2017-12-01T06:04:20.742Z,18.21
2017-12-01T06:05:21.164Z,18.30
2017-12-01T06:06:21.635Z,18.40
2017-12-01T06:07:22.114Z,18.51
2017-12-01T06:08:22.580Z,18.61
2017-12-01T06:09:23.103Z,18.72
2017-12-01T06:10:23.525Z,18.85
2017-12-01T06:11:23.998Z,18.98
2017-12-01T06:12:24.470Z,19.13
2017-12-01T06:13:24.944Z,19.30
2017-12-01T06:14:25.468Z,19.46
2017-12-01T06:15:25.891Z,19.62
2017-12-01T06:16:26.364Z,19.77
2017-12-01T06:17:26.838Z,19.93
2017-12-01T06:18:27.313Z,20.08
2017-12-01T06:19:27.838Z,20.23
2017-12-01T06:20:28.268Z,20.36
2017-12-01T06:21:28.736Z,20.46
2017-12-01T06:22:29.212Z,20.54
2017-12-01T06:23:29.687Z,20.60
2017-12-01T06:24:30.213Z,20.65
2017-12-01T06:25:30.638Z,20.68
2017-12-01T06:26:31.114Z,20.68
2017-12-01T06:27:31.590Z,20.69
2017-12-01T06:28:32.066Z,20.67
2017-12-01T06:29:32.592Z,20.65
2017-12-01T06:30:33.018Z,20.61
2017-12-01T06:31:33.494Z,20.56
2017-12-01T06:32:33.970Z,20.52
2017-12-01T06:33:34.447Z,20.47
2017-12-01T06:34:34.981Z,20.41
2017-12-01T06:35:35.400Z,20.35
2017-12-01T06:36:35.875Z,20.29
2017-12-01T06:37:36.352Z,20.24
2017-12-01T06:38:36.828Z,20.18
2017-12-01T06:39:37.355Z,20.11
2017-12-01T06:40:37.779Z,20.04
2017-12-01T06:41:38.256Z,19.97
2017-12-01T06:42:38.731Z,19.92
2017-12-01T06:43:39.210Z,19.86
2017-12-01T06:44:39.733Z,19.80
2017-12-01T06:45:40.158Z,19.75
2017-12-01T06:46:40.639Z,19.69
2017-12-01T06:47:41.110Z,19.65
2017-12-01T06:48:41.584Z,19.61
2017-12-01T06:49:42.111Z,19.57
2017-12-01T06:50:42.535Z,19.52
2017-12-01T06:51:43.010Z,19.49
2017-12-01T06:52:43.484Z,19.44
2017-12-01T06:53:43.960Z,19.40
2017-12-01T06:54:44.484Z,19.38
2017-12-01T06:55:44.909Z,19.35
2017-12-01T06:56:45.383Z,19.33
2017-12-01T06:57:45.858Z,19.31
2017-12-01T06:58:46.332Z,19.28
2017-12-01T06:59:46.858Z,19.25
2017-12-01T07:00:47.281Z,19.24
2017-12-01T07:01:47.755Z,19.22
2017-12-01T07:02:48.229Z,19.20
2017-12-01T07:03:48.703Z,19.19
2017-12-01T07:04:49.228Z,19.18
2017-12-01T07:05:49.651Z,19.17
2017-12-01T07:06:50.125Z,19.17
2017-12-01T07:07:50.598Z,19.16
2017-12-01T07:08:51.072Z,19.16
2017-12-01T07:09:51.597Z,19.15
2017-12-01T07:10:52.020Z,19.14
2017-12-01T07:11:52.494Z,19.13
2017-12-01T07:12:52.967Z,19.12
2017-12-01T07:13:53.441Z,19.11
2017-12-01T07:14:53.965Z,19.10
2017-12-01T07:15:54.388Z,19.09
2017-12-01T07:16:54.861Z,19.10
2017-12-01T07:17:55.334Z,19.09
2017-12-01T07:18:55.808Z,19.08
2017-12-01T07:19:56.332Z,19.08
2017-12-01T07:20:56.753Z,19.09
2017-12-01T07:21:57.228Z,19.08
2017-12-01T07:22:57.701Z,19.09
2017-12-01T07:23:58.174Z,19.09
2017-12-01T07:24:58.697Z,19.09
2017-12-01T07:25:59.120Z,19.09
2017-12-01T07:26:59.593Z,19.08
2017-12-01T07:28:00.067Z,19.09
2017-12-01T07:29:00.540Z,19.09
2017-12-01T07:30:01.064Z,19.10
2017-12-01T07:31:01.486Z,19.11
2017-12-01T07:32:01.960Z,19.12
2017-12-01T07:33:02.432Z,19.14
2017-12-01T07:34:02.911Z,19.15
2017-12-01T07:35:03.430Z,19.17
2017-12-01T07:36:03.853Z,19.20
2017-12-01T07:37:04.325Z,19.22
2017-12-01T07:38:04.798Z,19.25
2017-12-01T07:39:05.272Z,19.28
2017-12-01T07:40:05.797Z,19.32
2017-12-01T07:41:06.218Z,19.36
2017-12-01T07:42:06.692Z,19.40
2017-12-01T07:43:07.166Z,19.45
2017-12-01T07:44:07.639Z,19.51
2017-12-01T07:45:08.162Z,19.57
2017-12-01T07:46:08.586Z,19.63
2017-12-01T07:47:09.059Z,19.70
2017-12-01T07:48:09.533Z,19.75
2017-12-01T07:49:10.006Z,19.82
2017-12-01T07:50:10.531Z,19.87
2017-12-01T07:51:10.958Z,19.92
2017-12-01T07:52:11.428Z,19.98
2017-12-01T07:53:11.901Z,20.03
2017-12-01T07:54:12.375Z,20.08
2017-12-01T07:55:12.900Z,20.14
2017-12-01T07:56:13.323Z,20.18
2017-12-01T07:57:13.797Z,20.23
2017-12-01T07:58:14.270Z,20.26
2017-12-01T07:59:14.751Z,20.28
2017-12-01T08:00:15.269Z,20.30
2017-12-01T08:03:28.813Z,20.10
2017-12-01T08:05:18.120Z,20.04
2017-12-01T08:06:18.541Z,20.16
2017-12-01T08:07:19.009Z,20.12
2017-12-01T08:08:19.488Z,20.06
2017-12-01T08:09:19.951Z,20.01
2017-12-01T08:10:20.473Z,19.96
2017-12-01T08:11:20.895Z,19.92
2017-12-01T08:12:21.367Z,19.88
2017-12-01T08:13:21.839Z,19.83
2017-12-01T08:14:22.311Z,19.77
2017-12-01T08:15:22.834Z,19.72
2017-12-01T08:16:23.256Z,19.68
2017-12-01T08:17:23.728Z,19.64
2017-12-01T08:18:24.201Z,19.59
2017-12-01T08:19:24.673Z,19.54
2017-12-01T08:20:25.197Z,19.49
2017-12-01T08:21:25.618Z,19.44
2017-12-01T08:22:26.092Z,19.40
2017-12-01T08:23:26.565Z,19.36
2017-12-01T08:24:27.037Z,19.32
2017-12-01T08:25:27.560Z,19.29
2017-12-01T08:26:27.995Z,19.24
2017-12-01T08:27:28.455Z,19.21
2017-12-01T08:28:28.928Z,19.18
2017-12-01T08:29:29.401Z,19.15
2017-12-01T08:30:29.924Z,19.11
2017-12-01T08:31:30.347Z,19.09
2017-12-01T08:32:30.820Z,19.06
2017-12-01T08:33:31.292Z,19.04
2017-12-01T08:34:31.765Z,19.02
2017-12-01T08:35:32.294Z,18.99
2017-12-01T08:36:32.711Z,18.98
2017-12-01T08:37:33.183Z,18.96
2017-12-01T08:38:33.656Z,18.95
2017-12-01T08:39:34.129Z,18.94
2017-12-01T08:40:34.653Z,18.93
2017-12-01T08:41:35.074Z,18.92
2017-12-01T08:42:35.597Z,18.91
2017-12-01T08:43:36.021Z,18.90
2017-12-01T08:44:36.494Z,18.89
2017-12-01T08:45:37.016Z,18.89
2017-12-01T08:46:37.439Z,18.88
2017-12-01T08:47:37.912Z,18.90
2017-12-01T08:48:38.385Z,18.91
2017-12-01T08:49:38.857Z,18.93
2017-12-01T08:50:39.381Z,18.96
2017-12-01T08:51:39.805Z,18.99
2017-12-01T08:52:40.278Z,19.03
2017-12-01T08:53:40.750Z,19.07
2017-12-01T08:54:41.227Z,19.11
2017-12-01T08:55:41.748Z,19.16
2017-12-01T08:56:42.178Z,19.20
2017-12-01T08:57:42.643Z,19.24
2017-12-01T08:58:43.118Z,19.29
2017-12-01T08:59:43.593Z,19.34
2017-12-01T09:00:44.116Z,19.39
2017-12-01T09:01:44.539Z,19.43
2017-12-01T09:02:45.014Z,19.48
2017-12-01T09:03:45.488Z,19.54
2017-12-01T09:04:45.962Z,19.60
2017-12-01T09:05:46.487Z,19.66
2017-12-01T09:06:46.911Z,19.72
2017-12-01T09:07:47.386Z,19.78
2017-12-01T09:08:47.862Z,19.86
2017-12-01T09:09:48.336Z,19.92
2017-12-01T09:10:48.863Z,20.00
2017-12-01T09:11:49.288Z,20.07
2017-12-01T09:12:49.764Z,20.16
2017-12-01T09:13:50.239Z,20.23
2017-12-01T09:14:50.714Z,20.31
2017-12-01T09:15:51.242Z,20.39
2017-12-01T09:16:51.668Z,20.46
2017-12-01T09:17:52.144Z,20.52
2017-12-01T09:18:52.620Z,20.57
2017-12-01T09:19:53.101Z,20.61
2017-12-01T09:20:53.625Z,20.64
2017-12-01T09:21:54.050Z,20.66
2017-12-01T09:22:54.527Z,20.67
2017-12-01T09:23:55.004Z,20.68
2017-12-01T09:24:55.480Z,20.70
2017-12-01T09:25:56.008Z,20.73
2017-12-01T09:26:56.434Z,20.77
2017-12-01T09:27:56.910Z,20.78
2017-12-01T09:28:57.386Z,20.77
2017-12-01T09:29:57.862Z,20.73
2017-12-01T09:30:58.388Z,20.67
2017-12-01T09:31:58.814Z,20.60
2017-12-01T09:32:59.291Z,20.52
2017-12-01T09:33:59.765Z,20.46
2017-12-01T09:35:00.241Z,20.39
2017-12-01T09:36:00.818Z,20.34
2017-12-01T09:37:01.192Z,20.27
2017-12-01T09:38:01.667Z,20.22
2017-12-01T09:39:02.143Z,20.16
2017-12-01T09:40:02.618Z,20.10
2017-12-01T09:41:03.144Z,20.04
2017-12-01T09:42:03.570Z,20.00
2017-12-01T09:43:04.043Z,19.94
2017-12-01T09:44:04.519Z,19.90
2017-12-01T09:45:04.993Z,19.86
2017-12-01T09:46:05.520Z,19.82
2017-12-01T09:47:05.942Z,19.77
2017-12-01T09:48:06.439Z,19.74
2017-12-01T09:49:06.891Z,19.70
2017-12-01T09:50:07.365Z,19.66
2017-12-01T09:51:07.890Z,19.64
2017-12-01T09:52:08.315Z,19.61
2017-12-01T09:53:08.789Z,19.58
2017-12-01T09:54:09.262Z,19.56
2017-12-01T09:55:09.737Z,19.54
2017-12-01T09:56:10.266Z,19.51
2017-12-01T09:57:10.686Z,19.48
2017-12-01T09:58:11.159Z,19.47
2017-12-01T09:59:11.634Z,19.45
2017-12-01T10:00:12.108Z,19.43
2017-12-01T10:01:12.582Z,19.41
2017-12-01T10:02:13.056Z,19.40
2017-12-01T10:03:13.530Z,19.39
2017-12-01T10:04:14.004Z,19.38
2017-12-01T10:05:14.478Z,19.37
2017-12-01T10:06:15.052Z,19.36
2017-12-01T10:07:15.425Z,19.34
2017-12-01T10:08:15.901Z,19.34
2017-12-01T10:09:16.375Z,19.33
2017-12-01T10:10:16.846Z,19.33
2017-12-01T10:11:17.421Z,19.32
2017-12-01T10:12:17.794Z,19.32
2017-12-01T10:13:18.268Z,19.30
2017-12-01T10:14:18.741Z,19.30
2017-12-01T10:15:19.221Z,19.29
2017-12-01T10:16:19.743Z,19.29
2017-12-01T10:17:20.163Z,19.29
2017-12-01T10:18:20.635Z,19.29
2017-12-01T10:19:21.109Z,19.28
2017-12-01T10:20:21.583Z,19.28
2017-12-01T10:21:22.311Z,19.27
2017-12-01T10:22:22.530Z,19.26
2017-12-01T10:23:23.003Z,19.26
2017-12-01T10:24:23.478Z,19.25
2017-12-01T10:25:23.951Z,19.25
2017-12-01T10:26:24.474Z,19.25
2017-12-01T10:27:24.897Z,19.24
2017-12-01T10:28:25.371Z,19.24
2017-12-01T10:29:25.845Z,19.23
2017-12-01T10:30:26.317Z,19.22
2017-12-01T10:31:26.841Z,19.22
2017-12-01T10:32:27.264Z,19.21
2017-12-01T10:33:27.738Z,19.21
2017-12-01T10:34:28.211Z,19.22
2017-12-01T10:35:28.684Z,19.22
2017-12-01T10:36:29.208Z,19.22
2017-12-01T10:37:29.632Z,19.22
2017-12-01T10:38:30.104Z,19.22
2017-12-01T10:39:30.578Z,19.22
2017-12-01T10:40:31.051Z,19.22
2017-12-01T10:41:31.575Z,19.22
2017-12-01T10:42:31.999Z,19.22
2017-12-01T10:43:32.470Z,19.23
2017-12-01T10:44:32.944Z,19.23
2017-12-01T10:45:33.417Z,19.23
2017-12-01T10:46:33.940Z,19.23
2017-12-01T10:47:34.364Z,19.23
2017-12-01T10:48:34.838Z,19.22
2017-12-01T10:49:35.311Z,19.23
2017-12-01T10:50:35.784Z,19.23
2017-12-01T10:51:36.312Z,19.22
2017-12-01T10:52:36.731Z,19.23
2017-12-01T10:53:37.204Z,19.22
2017-12-01T10:54:37.677Z,19.22
2017-12-01T10:55:38.113Z,19.22
2017-12-01T10:56:38.692Z,19.21
2017-12-01T10:57:39.059Z,19.21
2017-12-01T10:58:39.532Z,19.21
2017-12-01T10:59:40.045Z,19.20
2017-12-01T11:00:40.567Z,19.20
2017-12-01T11:01:41.041Z,19.19
2017-12-01T11:02:41.463Z,19.19
2017-12-01T11:03:41.937Z,19.18
2017-12-01T11:04:42.410Z,19.17
2017-12-01T11:05:42.884Z,19.17
2017-12-01T11:06:43.407Z,19.16
2017-12-01T11:07:43.830Z,19.15
2017-12-01T11:08:44.303Z,19.15
2017-12-01T11:09:44.776Z,19.14
2017-12-01T11:10:45.249Z,19.15
2017-12-01T11:11:45.773Z,19.14
2017-12-01T11:12:46.196Z,19.14
2017-12-01T11:13:46.670Z,19.13
2017-12-01T11:14:47.142Z,19.13
2017-12-01T11:15:47.615Z,19.12
2017-12-01T11:16:48.139Z,19.12
2017-12-01T11:17:48.562Z,19.12
2017-12-01T11:18:49.034Z,19.11
2017-12-01T11:19:49.508Z,19.11
2017-12-01T11:20:49.984Z,19.11
2017-12-01T11:21:50.506Z,19.10
2017-12-01T11:22:50.927Z,19.10
2017-12-01T11:23:51.401Z,19.10
2017-12-01T11:24:51.874Z,19.10
2017-12-01T11:25:52.348Z,19.09
2017-12-01T11:26:52.921Z,19.10
2017-12-01T11:27:53.256Z,19.10
2017-12-01T11:28:53.729Z,19.10
2017-12-01T11:29:54.202Z,19.09
2017-12-01T11:30:54.674Z,19.09
2017-12-01T11:31:55.204Z,19.09
2017-12-01T11:32:55.622Z,19.09
2017-12-01T11:33:56.098Z,19.08
2017-12-01T11:34:56.567Z,19.08
2017-12-01T11:35:57.041Z,19.08
2017-12-01T11:36:57.565Z,19.08
2017-12-01T11:37:57.997Z,19.08
2017-12-01T11:38:58.460Z,19.08
2017-12-01T11:39:58.941Z,19.07
2017-12-01T11:40:59.407Z,19.08
2017-12-01T11:41:59.931Z,19.08
2017-12-01T11:43:00.353Z,19.08
2017-12-01T11:44:00.826Z,19.08
2017-12-01T11:45:01.338Z,19.08
2017-12-01T11:46:01.773Z,19.07
2017-12-01T11:47:02.347Z,19.07
2017-12-01T11:48:02.756Z,19.07
2017-12-01T11:49:03.230Z,19.06
2017-12-01T11:50:03.703Z,19.06
2017-12-01T11:51:04.137Z,19.05
2017-12-01T11:52:04.662Z,19.05
2017-12-01T11:53:05.084Z,19.05
2017-12-01T11:54:05.558Z,19.05
2017-12-01T11:55:06.030Z,19.05
2017-12-01T11:56:06.503Z,19.05
2017-12-01T11:57:07.078Z,19.05
2017-12-01T11:58:07.450Z,19.05
2017-12-01T11:59:07.923Z,19.05
2017-12-01T12:00:08.396Z,19.06
2017-12-01T12:01:08.869Z,19.06
2017-12-01T12:02:09.431Z,19.06
2017-12-01T12:03:09.852Z,19.07
2017-12-01T12:04:10.326Z,19.06
2017-12-01T12:05:10.761Z,19.07
2017-12-01T12:06:11.235Z,19.06
2017-12-01T12:07:11.758Z,19.07
2017-12-01T12:08:12.180Z,19.08
2017-12-01T12:09:12.655Z,19.08
2017-12-01T12:10:13.126Z,19.08
2017-12-01T12:11:13.599Z,19.09
2017-12-01T12:12:14.123Z,19.09
2017-12-01T12:13:14.546Z,19.10
2017-12-01T12:14:15.019Z,19.11
2017-12-01T12:15:15.491Z,19.11
2017-12-01T12:16:15.965Z,19.12
2017-12-01T12:17:16.438Z,19.12
2017-12-01T12:18:16.950Z,19.14
2017-12-01T12:19:17.422Z,19.15
2017-12-01T12:20:17.894Z,19.15
2017-12-01T12:21:18.368Z,19.16
2017-12-01T12:22:18.943Z,19.16
2017-12-01T12:23:19.313Z,19.17
2017-12-01T12:24:19.788Z,19.17
2017-12-01T12:25:20.260Z,19.17
2017-12-01T12:26:20.733Z,19.18
2017-12-01T12:27:21.257Z,19.18
2017-12-01T12:28:21.680Z,19.18
2017-12-01T12:29:22.153Z,19.17
2017-12-01T12:30:22.626Z,19.17
2017-12-01T12:31:23.099Z,19.16
2017-12-01T12:32:23.724Z,19.15
2017-12-01T12:33:24.045Z,19.15
2017-12-01T12:34:24.518Z,19.14
2017-12-01T12:35:24.991Z,19.14
2017-12-01T12:36:25.464Z,19.14
2017-12-01T12:37:26.038Z,19.14
2017-12-01T12:38:26.411Z,19.14
2017-12-01T12:39:26.883Z,19.14
2017-12-01T12:40:27.357Z,19.14
2017-12-01T12:41:27.830Z,19.15
2017-12-01T12:42:28.354Z,19.14
2017-12-01T12:43:28.775Z,19.15
2017-12-01T12:44:29.250Z,19.14
2017-12-01T12:45:29.724Z,19.14
2017-12-01T12:46:30.202Z,19.15
2017-12-01T12:47:30.719Z,19.14
2017-12-01T12:48:31.142Z,19.14
2017-12-01T12:49:31.615Z,19.13
2017-12-01T12:50:32.088Z,19.13
2017-12-01T12:51:32.561Z,19.12
2017-12-01T12:52:33.085Z,19.12
2017-12-01T12:53:33.508Z,19.11
2017-12-01T12:54:33.981Z,19.10
2017-12-01T12:55:34.454Z,19.10
2017-12-01T12:56:34.927Z,19.08
2017-12-01T12:57:35.451Z,19.08
2017-12-01T12:58:35.874Z,19.07
2017-12-01T12:59:36.346Z,19.07
2017-12-01T13:00:36.820Z,19.07
2017-12-01T13:01:37.293Z,19.06